sensor_id;sensor_type;location;lat;lon;timestamp;temperature;humidity
71237;DHT22;58984;51.960;5.582;2023-05-07T00:01:43;21.50;58.80
71237;DHT22;58984;51.960;5.582;2023-05-07T00:04:08;21.50;58.90
71237;DHT22;58984;51.960;5.582;2023-05-07T00:06:34;21.50;58.90
71237;DHT22;58984;51.960;5.582;2023-05-07T00:09:00;21.40;58.80
71237;DHT22;58984;51.960;5.582;2023-05-07T00:11:27;21.40;58.80
71237;DHT22;58984;51.960;5.582;2023-05-07T00:13:53;21.40;58.70
71237;DHT22;58984;51.960;5.582;2023-05-07T00:16:19;21.40;58.80
71237;DHT22;58984;51.960;5.582;2023-05-07T00:18:44;21.40;58.70
71237;DHT22;58984;51.960;5.582;2023-05-07T00:21:10;21.40;58.80
71237;DHT22;58984;51.960;5.582;2023-05-07T00:23:36;21.40;58.70
71237;DHT22;58984;51.960;5.582;2023-05-07T00:26:02;21.40;58.70
71237;DHT22;58984;51.960;5.582;2023-05-07T00:28:27;21.40;58.70
71237;DHT22;58984;51.960;5.582;2023-05-07T00:30:53;21.40;58.70
71237;DHT22;58984;51.960;5.582;2023-05-07T00:33:18;21.40;58.70
71237;DHT22;58984;51.960;5.582;2023-05-07T00:35:46;21.30;58.30
71237;DHT22;58984;51.960;5.582;2023-05-07T00:38:11;21.30;58.60
71237;DHT22;58984;51.960;5.582;2023-05-07T00:40:37;21.30;58.60
71237;DHT22;58984;51.960;5.582;2023-05-07T00:43:02;21.30;58.50
71237;DHT22;58984;51.960;5.582;2023-05-07T00:45:29;21.30;58.60
71237;DHT22;58984;51.960;5.582;2023-05-07T00:47:58;21.30;58.50
71237;DHT22;58984;51.960;5.582;2023-05-07T00:50:24;21.30;58.50
71237;DHT22;58984;51.960;5.582;2023-05-07T00:52:50;21.30;58.50
71237;DHT22;58984;51.960;5.582;2023-05-07T00:55:17;21.30;58.50
71237;DHT22;58984;51.960;5.582;2023-05-07T00:57:42;21.20;58.50
71237;DHT22;58984;51.960;5.582;2023-05-07T01:00:09;21.20;58.50
71237;DHT22;58984;51.960;5.582;2023-05-07T01:02:35;21.30;58.60
71237;DHT22;58984;51.960;5.582;2023-05-07T01:05:02;21.20;58.60
71237;DHT22;58984;51.960;5.582;2023-05-07T01:07:31;21.20;58.60
71237;DHT22;58984;51.960;5.582;2023-05-07T01:09:56;21.20;58.60
71237;DHT22;58984;51.960;5.582;2023-05-07T01:12:23;21.20;58.60
71237;DHT22;58984;51.960;5.582;2023-05-07T01:14:49;21.20;58.60
71237;DHT22;58984;51.960;5.582;2023-05-07T01:17:16;21.20;59.30
71237;DHT22;58984;51.960;5.582;2023-05-07T01:19:41;21.20;58.60
71237;DHT22;58984;51.960;5.582;2023-05-07T01:22:09;21.20;58.60
71237;DHT22;58984;51.960;5.582;2023-05-07T01:24:37;21.10;58.50
71237;DHT22;58984;51.960;5.582;2023-05-07T01:27:03;21.20;58.70
71237;DHT22;58984;51.960;5.582;2023-05-07T01:29:29;21.10;58.60
71237;DHT22;58984;51.960;5.582;2023-05-07T01:31:56;21.10;58.60
71237;DHT22;58984;51.960;5.582;2023-05-07T01:34:25;21.10;58.60
71237;DHT22;58984;51.960;5.582;2023-05-07T01:36:53;21.10;58.60
71237;DHT22;58984;51.960;5.582;2023-05-07T01:39:18;21.10;58.60
71237;DHT22;58984;51.960;5.582;2023-05-07T01:41:45;21.10;58.60
71237;DHT22;58984;51.960;5.582;2023-05-07T01:44:12;21.10;58.60
71237;DHT22;58984;51.960;5.582;2023-05-07T01:46:38;21.10;58.60
71237;DHT22;58984;51.960;5.582;2023-05-07T01:49:04;21.10;58.70
71237;DHT22;58984;51.960;5.582;2023-05-07T01:51:30;21.10;58.70
71237;DHT22;58984;51.960;5.582;2023-05-07T01:53:56;21.10;58.70
71237;DHT22;58984;51.960;5.582;2023-05-07T01:56:23;21.10;58.70
71237;DHT22;58984;51.960;5.582;2023-05-07T01:58:49;21.10;58.70
71237;DHT22;58984;51.960;5.582;2023-05-07T02:01:16;21.10;58.70
71237;DHT22;58984;51.960;5.582;2023-05-07T02:03:42;21.10;58.70
71237;DHT22;58984;51.960;5.582;2023-05-07T02:06:07;21.10;58.80
71237;DHT22;58984;51.960;5.582;2023-05-07T02:08:33;21.10;58.80
71237;DHT22;58984;51.960;5.582;2023-05-07T02:10:58;21.00;58.70
71237;DHT22;58984;51.960;5.582;2023-05-07T02:13:25;21.10;58.80
71237;DHT22;58984;51.960;5.582;2023-05-07T02:15:50;21.10;58.80
71237;DHT22;58984;51.960;5.582;2023-05-07T02:18:17;21.10;58.80
71237;DHT22;58984;51.960;5.582;2023-05-07T02:20:43;21.00;58.70
71237;DHT22;58984;51.960;5.582;2023-05-07T02:23:08;21.00;58.70
71237;DHT22;58984;51.960;5.582;2023-05-07T02:25:34;21.00;58.70
71237;DHT22;58984;51.960;5.582;2023-05-07T02:27:59;21.00;58.70
71237;DHT22;58984;51.960;5.582;2023-05-07T02:30:25;21.00;58.70
71237;DHT22;58984;51.960;5.582;2023-05-07T02:32:51;21.00;58.70
71237;DHT22;58984;51.960;5.582;2023-05-07T02:35:17;21.00;58.70
71237;DHT22;58984;51.960;5.582;2023-05-07T02:37:42;21.00;58.80
71237;DHT22;58984;51.960;5.582;2023-05-07T02:40:08;21.00;58.70
71237;DHT22;58984;51.960;5.582;2023-05-07T02:42:34;21.00;58.80
71237;DHT22;58984;51.960;5.582;2023-05-07T02:45:00;21.00;58.80
71237;DHT22;58984;51.960;5.582;2023-05-07T02:47:25;21.00;58.80
71237;DHT22;58984;51.960;5.582;2023-05-07T02:49:57;21.00;58.80
71237;DHT22;58984;51.960;5.582;2023-05-07T02:52:22;20.90;58.70
71237;DHT22;58984;51.960;5.582;2023-05-07T02:54:48;21.00;58.80
71237;DHT22;58984;51.960;5.582;2023-05-07T02:57:13;21.00;58.80
71237;DHT22;58984;51.960;5.582;2023-05-07T02:59:40;21.00;58.80
71237;DHT22;58984;51.960;5.582;2023-05-07T03:02:05;20.90;58.70
71237;DHT22;58984;51.960;5.582;2023-05-07T03:04:31;20.90;58.70
71237;DHT22;58984;51.960;5.582;2023-05-07T03:06:56;20.90;58.70
71237;DHT22;58984;51.960;5.582;2023-05-07T03:09:22;20.90;58.70
71237;DHT22;58984;51.960;5.582;2023-05-07T03:11:47;20.90;58.70
71237;DHT22;58984;51.960;5.582;2023-05-07T03:14:13;20.90;58.70
71237;DHT22;58984;51.960;5.582;2023-05-07T03:16:39;20.90;58.70
71237;DHT22;58984;51.960;5.582;2023-05-07T03:19:04;20.90;58.70
71237;DHT22;58984;51.960;5.582;2023-05-07T03:21:30;20.80;58.60
71237;DHT22;58984;51.960;5.582;2023-05-07T03:23:58;20.90;58.70
71237;DHT22;58984;51.960;5.582;2023-05-07T03:26:23;20.90;58.70
71237;DHT22;58984;51.960;5.582;2023-05-07T03:28:49;20.80;58.60
71237;DHT22;58984;51.960;5.582;2023-05-07T03:31:15;20.80;58.60
71237;DHT22;58984;51.960;5.582;2023-05-07T03:33:54;20.90;58.70
71237;DHT22;58984;51.960;5.582;2023-05-07T03:36:21;20.80;58.60
71237;DHT22;58984;51.960;5.582;2023-05-07T03:38:48;20.90;58.70
71237;DHT22;58984;51.960;5.582;2023-05-07T03:41:14;20.80;58.60
71237;DHT22;58984;51.960;5.582;2023-05-07T03:43:39;20.80;58.60
71237;DHT22;58984;51.960;5.582;2023-05-07T03:46:05;20.80;58.60
71237;DHT22;58984;51.960;5.582;2023-05-07T03:48:30;20.80;59.20
71237;DHT22;58984;51.960;5.582;2023-05-07T03:50:57;20.80;58.60
71237;DHT22;58984;51.960;5.582;2023-05-07T03:53:23;20.80;58.60
71237;DHT22;58984;51.960;5.582;2023-05-07T03:55:49;20.80;58.60
71237;DHT22;58984;51.960;5.582;2023-05-07T03:58:15;20.80;58.60
71237;DHT22;58984;51.960;5.582;2023-05-07T04:00:41;20.80;58.60
71237;DHT22;58984;51.960;5.582;2023-05-07T04:03:06;20.80;58.60
71237;DHT22;58984;51.960;5.582;2023-05-07T04:05:32;20.80;58.60
71237;DHT22;58984;51.960;5.582;2023-05-07T04:07:58;20.70;58.50
71237;DHT22;58984;51.960;5.582;2023-05-07T04:10:24;20.80;58.60
71237;DHT22;58984;51.960;5.582;2023-05-07T04:12:50;20.80;58.60
71237;DHT22;58984;51.960;5.582;2023-05-07T04:15:15;20.80;58.60
71237;DHT22;58984;51.960;5.582;2023-05-07T04:17:41;20.80;58.60
71237;DHT22;58984;51.960;5.582;2023-05-07T04:20:09;20.70;59.20
71237;DHT22;58984;51.960;5.582;2023-05-07T04:22:35;20.70;58.50
71237;DHT22;58984;51.960;5.582;2023-05-07T04:25:01;20.70;58.50
71237;DHT22;58984;51.960;5.582;2023-05-07T04:27:27;20.70;58.50
71237;DHT22;58984;51.960;5.582;2023-05-07T04:29:53;20.70;58.50
71237;DHT22;58984;51.960;5.582;2023-05-07T04:32:21;20.70;58.50
71237;DHT22;58984;51.960;5.582;2023-05-07T04:34:46;20.70;58.50
71237;DHT22;58984;51.960;5.582;2023-05-07T04:37:12;20.70;58.60
71237;DHT22;58984;51.960;5.582;2023-05-07T04:39:37;20.70;58.70
71237;DHT22;58984;51.960;5.582;2023-05-07T04:42:03;20.70;58.70
71237;DHT22;58984;51.960;5.582;2023-05-07T04:44:29;20.70;58.70
71237;DHT22;58984;51.960;5.582;2023-05-07T04:46:56;20.70;58.80
71237;DHT22;58984;51.960;5.582;2023-05-07T04:49:22;20.70;58.90
71237;DHT22;58984;51.960;5.582;2023-05-07T04:51:47;20.70;58.90
71237;DHT22;58984;51.960;5.582;2023-05-07T04:54:13;20.70;58.90
71237;DHT22;58984;51.960;5.582;2023-05-07T04:56:38;20.70;59.00
71237;DHT22;58984;51.960;5.582;2023-05-07T04:59:04;20.70;58.90
71237;DHT22;58984;51.960;5.582;2023-05-07T05:01:31;20.70;59.00
71237;DHT22;58984;51.960;5.582;2023-05-07T05:03:56;20.70;59.10
71237;DHT22;58984;51.960;5.582;2023-05-07T05:06:22;20.60;59.00
71237;DHT22;58984;51.960;5.582;2023-05-07T05:08:48;20.70;59.10
71237;DHT22;58984;51.960;5.582;2023-05-07T05:11:13;20.70;59.10
71237;DHT22;58984;51.960;5.582;2023-05-07T05:13:39;20.70;59.10
71237;DHT22;58984;51.960;5.582;2023-05-07T05:16:05;20.60;59.00
71237;DHT22;58984;51.960;5.582;2023-05-07T05:18:31;20.70;59.10
71237;DHT22;58984;51.960;5.582;2023-05-07T05:20:56;20.70;59.10
71237;DHT22;58984;51.960;5.582;2023-05-07T05:23:22;20.70;59.20
71237;DHT22;58984;51.960;5.582;2023-05-07T05:25:47;20.60;59.20
71237;DHT22;58984;51.960;5.582;2023-05-07T05:28:13;20.70;59.30
71237;DHT22;58984;51.960;5.582;2023-05-07T05:30:39;20.70;59.30
71237;DHT22;58984;51.960;5.582;2023-05-07T05:33:05;20.70;59.30
71237;DHT22;58984;51.960;5.582;2023-05-07T05:35:30;20.70;59.40
71237;DHT22;58984;51.960;5.582;2023-05-07T05:37:57;20.70;59.40
71237;DHT22;58984;51.960;5.582;2023-05-07T05:40:22;20.70;59.40
71237;DHT22;58984;51.960;5.582;2023-05-07T05:42:48;20.70;59.50
71237;DHT22;58984;51.960;5.582;2023-05-07T05:45:13;20.60;59.70
71237;DHT22;58984;51.960;5.582;2023-05-07T05:47:40;20.60;59.40
71237;DHT22;58984;51.960;5.582;2023-05-07T05:50:07;20.60;59.60
71237;DHT22;58984;51.960;5.582;2023-05-07T05:52:32;20.60;59.50
71237;DHT22;58984;51.960;5.582;2023-05-07T05:54:58;20.70;59.60
71237;DHT22;58984;51.960;5.582;2023-05-07T05:57:23;20.70;59.60
71237;DHT22;58984;51.960;5.582;2023-05-07T05:59:49;20.60;59.50
71237;DHT22;58984;51.960;5.582;2023-05-07T06:02:15;20.70;59.60
71237;DHT22;58984;51.960;5.582;2023-05-07T06:04:41;20.60;59.60
71237;DHT22;58984;51.960;5.582;2023-05-07T06:07:07;20.60;59.60
71237;DHT22;58984;51.960;5.582;2023-05-07T06:09:33;20.70;59.70
71237;DHT22;58984;51.960;5.582;2023-05-07T06:11:58;20.70;59.80
71237;DHT22;58984;51.960;5.582;2023-05-07T06:14:24;20.70;59.80
71237;DHT22;58984;51.960;5.582;2023-05-07T06:16:49;20.70;59.70
71237;DHT22;58984;51.960;5.582;2023-05-07T06:19:15;20.70;59.70
71237;DHT22;58984;51.960;5.582;2023-05-07T06:21:43;20.70;59.70
71237;DHT22;58984;51.960;5.582;2023-05-07T06:24:09;20.70;59.70
71237;DHT22;58984;51.960;5.582;2023-05-07T06:26:34;20.60;59.70
71237;DHT22;58984;51.960;5.582;2023-05-07T06:29:00;20.70;60.50
71237;DHT22;58984;51.960;5.582;2023-05-07T06:31:29;20.60;59.80
71237;DHT22;58984;51.960;5.582;2023-05-07T06:33:56;20.60;59.80
71237;DHT22;58984;51.960;5.582;2023-05-07T06:36:21;20.60;59.80
71237;DHT22;58984;51.960;5.582;2023-05-07T06:38:47;20.60;59.90
71237;DHT22;58984;51.960;5.582;2023-05-07T06:41:12;20.60;59.80
71237;DHT22;58984;51.960;5.582;2023-05-07T06:43:38;20.60;60.00
71237;DHT22;58984;51.960;5.582;2023-05-07T06:46:04;20.70;60.10
71237;DHT22;58984;51.960;5.582;2023-05-07T06:48:29;20.60;60.00
71237;DHT22;58984;51.960;5.582;2023-05-07T06:50:55;20.70;60.20
71237;DHT22;58984;51.960;5.582;2023-05-07T06:53:23;20.60;60.10
71237;DHT22;58984;51.960;5.582;2023-05-07T06:55:48;20.70;60.40
71237;DHT22;58984;51.960;5.582;2023-05-07T06:58:14;20.70;60.40
71237;DHT22;58984;51.960;5.582;2023-05-07T07:00:39;20.60;60.40
71237;DHT22;58984;51.960;5.582;2023-05-07T07:03:06;20.70;60.50
71237;DHT22;58984;51.960;5.582;2023-05-07T07:05:32;20.70;60.60
71237;DHT22;58984;51.960;5.582;2023-05-07T07:07:57;20.70;60.80
71237;DHT22;58984;51.960;5.582;2023-05-07T07:10:23;20.70;60.90
71237;DHT22;58984;51.960;5.582;2023-05-07T07:12:49;20.70;60.90
71237;DHT22;58984;51.960;5.582;2023-05-07T07:15:15;20.70;61.00
71237;DHT22;58984;51.960;5.582;2023-05-07T07:17:41;20.70;61.00
71237;DHT22;58984;51.960;5.582;2023-05-07T07:20:07;20.70;61.00
71237;DHT22;58984;51.960;5.582;2023-05-07T07:22:33;20.70;61.00
71237;DHT22;58984;51.960;5.582;2023-05-07T07:24:59;20.70;61.20
71237;DHT22;58984;51.960;5.582;2023-05-07T07:27:24;20.70;61.00
71237;DHT22;58984;51.960;5.582;2023-05-07T07:29:50;20.70;61.00
71237;DHT22;58984;51.960;5.582;2023-05-07T07:32:16;20.70;61.00
71237;DHT22;58984;51.960;5.582;2023-05-07T07:34:41;20.70;61.00
71237;DHT22;58984;51.960;5.582;2023-05-07T07:37:07;20.70;60.80
71237;DHT22;58984;51.960;5.582;2023-05-07T07:39:33;20.80;60.90
71237;DHT22;58984;51.960;5.582;2023-05-07T07:41:59;20.70;60.70
71237;DHT22;58984;51.960;5.582;2023-05-07T07:44:25;20.70;60.70
71237;DHT22;58984;51.960;5.582;2023-05-07T07:46:51;20.70;60.80
71237;DHT22;58984;51.960;5.582;2023-05-07T07:49:16;20.80;60.90
71237;DHT22;58984;51.960;5.582;2023-05-07T07:51:42;20.70;60.80
71237;DHT22;58984;51.960;5.582;2023-05-07T07:54:08;20.80;60.90
71237;DHT22;58984;51.960;5.582;2023-05-07T07:56:34;20.80;60.80
71237;DHT22;58984;51.960;5.582;2023-05-07T07:59:00;20.80;61.00
71237;DHT22;58984;51.960;5.582;2023-05-07T08:01:25;20.80;60.90
71237;DHT22;58984;51.960;5.582;2023-05-07T08:03:52;20.80;60.90
71237;DHT22;58984;51.960;5.582;2023-05-07T08:06:17;20.80;60.90
71237;DHT22;58984;51.960;5.582;2023-05-07T08:08:43;20.80;60.90
71237;DHT22;58984;51.960;5.582;2023-05-07T08:11:09;20.80;61.00
71237;DHT22;58984;51.960;5.582;2023-05-07T08:13:35;20.80;60.80
71237;DHT22;58984;51.960;5.582;2023-05-07T08:16:01;20.80;60.90
71237;DHT22;58984;51.960;5.582;2023-05-07T08:18:26;20.80;61.00
71237;DHT22;58984;51.960;5.582;2023-05-07T08:20:54;20.90;61.90
71237;DHT22;58984;51.960;5.582;2023-05-07T08:23:20;20.80;61.00
71237;DHT22;58984;51.960;5.582;2023-05-07T08:25:46;20.90;61.30
71237;DHT22;58984;51.960;5.582;2023-05-07T08:28:11;20.90;61.10
71237;DHT22;58984;51.960;5.582;2023-05-07T08:30:37;20.90;61.20
71237;DHT22;58984;51.960;5.582;2023-05-07T08:33:02;20.90;61.00
71237;DHT22;58984;51.960;5.582;2023-05-07T08:35:28;20.90;61.30
71237;DHT22;58984;51.960;5.582;2023-05-07T08:37:54;20.90;61.30
71237;DHT22;58984;51.960;5.582;2023-05-07T08:40:21;21.00;61.50
71237;DHT22;58984;51.960;5.582;2023-05-07T08:42:52;21.00;61.40
71237;DHT22;58984;51.960;5.582;2023-05-07T08:45:19;20.90;61.30
71237;DHT22;58984;51.960;5.582;2023-05-07T08:47:47;21.00;61.40
71237;DHT22;58984;51.960;5.582;2023-05-07T08:50:15;21.00;61.40
71237;DHT22;58984;51.960;5.582;2023-05-07T08:52:41;21.00;61.20
71237;DHT22;58984;51.960;5.582;2023-05-07T08:55:07;21.00;61.10
71237;DHT22;58984;51.960;5.582;2023-05-07T08:57:33;21.00;61.20
71237;DHT22;58984;51.960;5.582;2023-05-07T08:59:59;21.00;61.10
71237;DHT22;58984;51.960;5.582;2023-05-07T09:02:24;21.10;61.20
71237;DHT22;58984;51.960;5.582;2023-05-07T09:04:50;21.20;61.30
71237;DHT22;58984;51.960;5.582;2023-05-07T09:07:16;21.10;61.20
71237;DHT22;58984;51.960;5.582;2023-05-07T09:09:44;21.20;61.30
71237;DHT22;58984;51.960;5.582;2023-05-07T09:12:09;21.20;61.30
71237;DHT22;58984;51.960;5.582;2023-05-07T09:14:35;21.20;61.20
71237;DHT22;58984;51.960;5.582;2023-05-07T09:17:01;21.30;61.20
71237;DHT22;58984;51.960;5.582;2023-05-07T09:19:27;21.30;61.20
71237;DHT22;58984;51.960;5.582;2023-05-07T09:22:03;21.30;61.00
71237;DHT22;58984;51.960;5.582;2023-05-07T09:24:29;21.30;61.20
71237;DHT22;58984;51.960;5.582;2023-05-07T09:26:59;21.40;61.00
71237;DHT22;58984;51.960;5.582;2023-05-07T09:29:25;21.50;61.00
71237;DHT22;58984;51.960;5.582;2023-05-07T09:31:51;21.50;60.90
71237;DHT22;58984;51.960;5.582;2023-05-07T09:34:17;21.60;61.00
71237;DHT22;58984;51.960;5.582;2023-05-07T09:36:42;21.60;61.00
71237;DHT22;58984;51.960;5.582;2023-05-07T09:39:08;21.60;61.00
71237;DHT22;58984;51.960;5.582;2023-05-07T09:41:43;21.60;61.70
71237;DHT22;58984;51.960;5.582;2023-05-07T09:44:09;21.60;60.90
71237;DHT22;58984;51.960;5.582;2023-05-07T09:46:36;21.70;60.80
71237;DHT22;58984;51.960;5.582;2023-05-07T09:49:06;21.80;60.90
71237;DHT22;58984;51.960;5.582;2023-05-07T09:51:39;21.80;60.90
71237;DHT22;58984;51.960;5.582;2023-05-07T09:54:07;21.80;60.80
71237;DHT22;58984;51.960;5.582;2023-05-07T09:56:32;21.80;60.70
71237;DHT22;58984;51.960;5.582;2023-05-07T09:59:00;21.90;60.80
71237;DHT22;58984;51.960;5.582;2023-05-07T10:01:26;21.90;60.70
71237;DHT22;58984;51.960;5.582;2023-05-07T10:03:53;21.90;60.70
71237;DHT22;58984;51.960;5.582;2023-05-07T10:06:20;21.90;60.70
71237;DHT22;58984;51.960;5.582;2023-05-07T10:08:45;21.90;60.60
71237;DHT22;58984;51.960;5.582;2023-05-07T10:11:12;22.00;60.80
71237;DHT22;58984;51.960;5.582;2023-05-07T10:13:40;22.10;60.80
71237;DHT22;58984;51.960;5.582;2023-05-07T10:16:06;22.00;60.60
71237;DHT22;58984;51.960;5.582;2023-05-07T10:18:33;22.10;60.70
71237;DHT22;58984;51.960;5.582;2023-05-07T10:21:06;22.10;60.70
71237;DHT22;58984;51.960;5.582;2023-05-07T10:23:33;22.10;60.70
71237;DHT22;58984;51.960;5.582;2023-05-07T10:26:02;22.10;60.40
71237;DHT22;58984;51.960;5.582;2023-05-07T10:28:36;22.10;60.50
71237;DHT22;58984;51.960;5.582;2023-05-07T10:31:21;22.10;60.60
71237;DHT22;58984;51.960;5.582;2023-05-07T10:33:53;22.10;60.70
71237;DHT22;58984;51.960;5.582;2023-05-07T10:36:20;22.20;60.50
71237;DHT22;58984;51.960;5.582;2023-05-07T10:38:46;22.20;60.40
71237;DHT22;58984;51.960;5.582;2023-05-07T10:41:12;22.20;60.60
71237;DHT22;58984;51.960;5.582;2023-05-07T10:43:39;22.20;60.50
71237;DHT22;58984;51.960;5.582;2023-05-07T10:46:10;22.20;60.50
71237;DHT22;58984;51.960;5.582;2023-05-07T10:51:26;22.20;60.50
71237;DHT22;58984;51.960;5.582;2023-05-07T10:56:37;22.20;60.50
71237;DHT22;58984;51.960;5.582;2023-05-07T11:01:54;22.30;60.70
71237;DHT22;58984;51.960;5.582;2023-05-07T11:04:21;22.30;60.50
71237;DHT22;58984;51.960;5.582;2023-05-07T11:15:04;22.30;60.50
71237;DHT22;58984;51.960;5.582;2023-05-07T11:17:31;22.40;60.50
71237;DHT22;58984;51.960;5.582;2023-05-07T11:19:57;22.40;60.60
71237;DHT22;58984;51.960;5.582;2023-05-07T11:25:05;22.40;60.60
71237;DHT22;58984;51.960;5.582;2023-05-07T11:27:31;22.50;60.70
71237;DHT22;58984;51.960;5.582;2023-05-07T11:29:57;22.50;60.70
71237;DHT22;58984;51.960;5.582;2023-05-07T11:32:31;22.60;60.80
71237;DHT22;58984;51.960;5.582;2023-05-07T11:35:00;22.50;61.10
71237;DHT22;58984;51.960;5.582;2023-05-07T11:37:27;22.60;60.80
71237;DHT22;58984;51.960;5.582;2023-05-07T11:40:05;22.60;60.70
71237;DHT22;58984;51.960;5.582;2023-05-07T11:42:41;22.60;60.80
71237;DHT22;58984;51.960;5.582;2023-05-07T11:45:08;22.60;60.80
71237;DHT22;58984;51.960;5.582;2023-05-07T11:47:35;22.70;60.80
71237;DHT22;58984;51.960;5.582;2023-05-07T11:50:07;22.70;60.80
71237;DHT22;58984;51.960;5.582;2023-05-07T11:52:33;22.70;60.90
71237;DHT22;58984;51.960;5.582;2023-05-07T11:55:00;22.70;60.70
71237;DHT22;58984;51.960;5.582;2023-05-07T11:57:26;22.80;60.90
71237;DHT22;58984;51.960;5.582;2023-05-07T11:59:53;22.80;61.00
71237;DHT22;58984;51.960;5.582;2023-05-07T12:02:19;22.80;61.00
71237;DHT22;58984;51.960;5.582;2023-05-07T12:04:44;22.80;60.70
71237;DHT22;58984;51.960;5.582;2023-05-07T12:07:14;22.90;60.80
71237;DHT22;58984;51.960;5.582;2023-05-07T12:09:44;22.80;60.60
71237;DHT22;58984;51.960;5.582;2023-05-07T12:12:10;22.90;60.40
71237;DHT22;58984;51.960;5.582;2023-05-07T12:14:43;23.00;60.50
71237;DHT22;58984;51.960;5.582;2023-05-07T12:17:10;22.90;60.40
71237;DHT22;58984;51.960;5.582;2023-05-07T12:19:36;23.00;60.50
71237;DHT22;58984;51.960;5.582;2023-05-07T12:22:03;23.00;60.50
71237;DHT22;58984;51.960;5.582;2023-05-07T12:24:41;23.00;60.50
71237;DHT22;58984;51.960;5.582;2023-05-07T12:27:06;23.10;60.60
71237;DHT22;58984;51.960;5.582;2023-05-07T12:29:32;23.10;60.60
71237;DHT22;58984;51.960;5.582;2023-05-07T12:31:58;23.10;60.60
71237;DHT22;58984;51.960;5.582;2023-05-07T12:34:24;23.10;60.60
71237;DHT22;58984;51.960;5.582;2023-05-07T12:36:49;23.20;60.70
71237;DHT22;58984;51.960;5.582;2023-05-07T12:39:15;23.20;60.70
71237;DHT22;58984;51.960;5.582;2023-05-07T12:41:57;23.20;60.80
71237;DHT22;58984;51.960;5.582;2023-05-07T12:44:31;23.20;60.70
71237;DHT22;58984;51.960;5.582;2023-05-07T12:46:57;23.30;60.80
71237;DHT22;58984;51.960;5.582;2023-05-07T12:49:23;23.30;60.80
71237;DHT22;58984;51.960;5.582;2023-05-07T12:51:50;23.30;60.80
71237;DHT22;58984;51.960;5.582;2023-05-07T12:54:32;23.30;60.80
71237;DHT22;58984;51.960;5.582;2023-05-07T12:57:06;23.30;60.80
71237;DHT22;58984;51.960;5.582;2023-05-07T12:59:39;23.30;60.80
71237;DHT22;58984;51.960;5.582;2023-05-07T13:02:06;23.30;60.90
71237;DHT22;58984;51.960;5.582;2023-05-07T13:04:32;23.40;60.90
71237;DHT22;58984;51.960;5.582;2023-05-07T13:07:01;23.40;60.90
71237;DHT22;58984;51.960;5.582;2023-05-07T13:09:28;23.40;60.90
71237;DHT22;58984;51.960;5.582;2023-05-07T13:11:57;23.50;60.90
71237;DHT22;58984;51.960;5.582;2023-05-07T13:14:25;23.50;60.90
71237;DHT22;58984;51.960;5.582;2023-05-07T13:16:50;23.50;60.80
71237;DHT22;58984;51.960;5.582;2023-05-07T13:19:16;23.50;60.70
71237;DHT22;58984;51.960;5.582;2023-05-07T13:21:42;23.50;60.80
71237;DHT22;58984;51.960;5.582;2023-05-07T13:24:08;23.50;60.70
71237;DHT22;58984;51.960;5.582;2023-05-07T13:26:34;23.50;60.70
71237;DHT22;58984;51.960;5.582;2023-05-07T13:28:59;23.50;60.70
71237;DHT22;58984;51.960;5.582;2023-05-07T13:31:25;23.50;60.50
71237;DHT22;58984;51.960;5.582;2023-05-07T13:33:51;23.60;60.40
71237;DHT22;58984;51.960;5.582;2023-05-07T13:36:17;23.50;60.40
71237;DHT22;58984;51.960;5.582;2023-05-07T13:38:43;23.60;60.50
71237;DHT22;58984;51.960;5.582;2023-05-07T13:41:09;23.60;60.50
71237;DHT22;58984;51.960;5.582;2023-05-07T13:43:34;23.60;60.40
71237;DHT22;58984;51.960;5.582;2023-05-07T13:46:00;23.60;60.30
71237;DHT22;58984;51.960;5.582;2023-05-07T13:48:26;23.60;60.20
71237;DHT22;58984;51.960;5.582;2023-05-07T13:50:53;23.60;60.30
71237;DHT22;58984;51.960;5.582;2023-05-07T13:53:19;23.60;60.40
71237;DHT22;58984;51.960;5.582;2023-05-07T13:55:45;23.60;60.40
71237;DHT22;58984;51.960;5.582;2023-05-07T13:58:10;23.60;60.30
71237;DHT22;58984;51.960;5.582;2023-05-07T14:00:36;23.60;60.30
71237;DHT22;58984;51.960;5.582;2023-05-07T14:03:02;23.60;61.00
71237;DHT22;58984;51.960;5.582;2023-05-07T14:05:28;23.60;60.20
71237;DHT22;58984;51.960;5.582;2023-05-07T14:07:55;23.70;60.30
71237;DHT22;58984;51.960;5.582;2023-05-07T14:10:22;23.70;60.20
71237;DHT22;58984;51.960;5.582;2023-05-07T14:12:47;23.70;60.10
71237;DHT22;58984;51.960;5.582;2023-05-07T14:15:13;23.70;60.10
71237;DHT22;58984;51.960;5.582;2023-05-07T14:17:39;23.70;60.10
71237;DHT22;58984;51.960;5.582;2023-05-07T14:20:05;23.70;60.10
71237;DHT22;58984;51.960;5.582;2023-05-07T14:22:32;23.70;60.10
71237;DHT22;58984;51.960;5.582;2023-05-07T14:24:58;23.70;60.00
71237;DHT22;58984;51.960;5.582;2023-05-07T14:27:23;23.70;60.10
71237;DHT22;58984;51.960;5.582;2023-05-07T14:29:49;23.70;60.00
71237;DHT22;58984;51.960;5.582;2023-05-07T14:32:17;23.80;59.20
71237;DHT22;58984;51.960;5.582;2023-05-07T14:34:43;23.80;58.80
71237;DHT22;58984;51.960;5.582;2023-05-07T14:37:09;23.90;59.10
71237;DHT22;58984;51.960;5.582;2023-05-07T14:39:34;24.00;59.20
71237;DHT22;58984;51.960;5.582;2023-05-07T14:42:00;24.00;59.30
71237;DHT22;58984;51.960;5.582;2023-05-07T14:44:26;23.90;59.30
71237;DHT22;58984;51.960;5.582;2023-05-07T14:46:51;24.00;59.50
71237;DHT22;58984;51.960;5.582;2023-05-07T14:49:17;23.90;59.50
71237;DHT22;58984;51.960;5.582;2023-05-07T14:51:44;23.90;59.60
71237;DHT22;58984;51.960;5.582;2023-05-07T14:54:10;23.90;59.60
71237;DHT22;58984;51.960;5.582;2023-05-07T14:56:36;23.90;59.60
71237;DHT22;58984;51.960;5.582;2023-05-07T14:59:02;23.90;59.60
71237;DHT22;58984;51.960;5.582;2023-05-07T15:01:28;23.90;59.50
71237;DHT22;58984;51.960;5.582;2023-05-07T15:03:54;23.90;59.60
71237;DHT22;58984;51.960;5.582;2023-05-07T15:06:20;23.90;59.70
71237;DHT22;58984;51.960;5.582;2023-05-07T15:08:49;23.90;59.80
71237;DHT22;58984;51.960;5.582;2023-05-07T15:11:14;23.90;59.70
71237;DHT22;58984;51.960;5.582;2023-05-07T15:13:42;23.90;59.40
71237;DHT22;58984;51.960;5.582;2023-05-07T15:16:08;23.90;59.20
71237;DHT22;58984;51.960;5.582;2023-05-07T15:18:33;23.90;59.20
71237;DHT22;58984;51.960;5.582;2023-05-07T15:20:59;23.90;59.00
71237;DHT22;58984;51.960;5.582;2023-05-07T15:23:25;23.80;59.00
71237;DHT22;58984;51.960;5.582;2023-05-07T15:25:51;23.80;58.80
71237;DHT22;58984;51.960;5.582;2023-05-07T15:28:19;23.80;58.60
71237;DHT22;58984;51.960;5.582;2023-05-07T15:30:44;23.80;58.60
71237;DHT22;58984;51.960;5.582;2023-05-07T15:33:10;23.80;58.70
71237;DHT22;58984;51.960;5.582;2023-05-07T15:35:36;23.70;58.70
71237;DHT22;58984;51.960;5.582;2023-05-07T15:38:02;23.70;58.80
71237;DHT22;58984;51.960;5.582;2023-05-07T15:40:28;23.70;58.90
71237;DHT22;58984;51.960;5.582;2023-05-07T15:42:54;23.70;59.10
71237;DHT22;58984;51.960;5.582;2023-05-07T15:45:21;23.60;59.10